Time;durP1;ratioP1;P1;durP2;ratioP2;P2;SDS_P1;SDS_P2;PMS_P1;PMS_P2;Temp;Humidity;BMP_temperature;BMP_pressure;BME280_temperature;BME280_humidity;BME280_pressure;Samples;Min_cycle;Max_cycle;Signal;HPM_P1;HPM_P2
2022/05/13 00:01:30;;;;;;;4.45;1.80;;;;;;;-145.23;100.00;58621.06;5080090;28;20724;-52
2022/05/13 00:03:57;;;;;;;3.58;2.55;;;;;;;-145.23;100.00;58621.06;5085233;28;20227;-51
2022/05/13 00:06:23;;;;;;;2.80;2.58;;;;;;;-145.23;100.00;58621.06;5099400;27;20234;-51
2022/05/13 00:08:51;;;;;;;2.22;2.00;;;;;;;-145.23;100.00;58621.06;5090496;27;20230;-51
2022/05/13 00:11:17;;;;;;;3.25;2.10;;;;;;;-145.23;100.00;58621.06;5072289;28;20236;-52
2022/05/13 00:13:44;;;;;;;2.33;2.13;;;;;;;-145.23;100.00;58621.06;5081173;28;20234;-52
2022/05/13 00:16:11;;;;;;;2.38;2.25;;;;;;;-145.23;100.00;58621.06;5077557;28;20229;-52
2022/05/13 00:18:38;;;;;;;2.30;2.10;;;;;;;-145.23;100.00;58621.06;5083029;28;20239;-51
2022/05/13 00:21:05;;;;;;;2.58;2.42;;;;;;;-145.23;100.00;58621.06;5074100;28;20231;-52
2022/05/13 00:23:32;;;;;;;2.88;2.33;;;;;;;-145.23;100.00;58621.06;5087691;28;20226;-50
2022/05/13 00:26:00;;;;;;;3.63;2.20;;;;;;;-145.23;100.00;58621.06;5079123;28;20613;-51
2022/05/13 00:28:26;;;;;;;2.20;2.10;;;;;;;-145.23;100.00;58621.06;5085179;28;20238;-51
2022/05/13 00:30:53;;;;;;;2.10;2.00;;;;;;;-145.23;100.00;58621.06;5086792;28;20488;-52
2022/05/13 00:33:21;;;;;;;5.40;2.30;;;;;;;-145.23;100.00;58621.06;5082302;28;20281;-51
2022/05/13 00:35:48;;;;;;;3.38;2.72;;;;;;;-145.23;100.00;58621.06;5084229;28;20231;-52
2022/05/13 00:38:14;;;;;;;3.42;2.50;;;;;;;-145.23;100.00;58621.06;5074871;28;20725;-52
2022/05/13 00:40:41;;;;;;;3.17;2.40;;;;;;;-145.23;100.00;58621.06;5083991;28;20238;-51
2022/05/13 00:43:11;;;;;;;4.43;2.83;;;;;;;-145.23;100.00;58621.06;5085033;28;20748;-52
2022/05/13 00:45:38;;;;;;;3.70;2.50;;;;;;;-145.23;100.00;58621.06;5082516;28;20251;-52
2022/05/13 00:48:05;;;;;;;2.65;2.45;;;;;;;-145.23;100.00;58621.06;5080815;28;20247;-52
2022/05/13 00:50:33;;;;;;;4.07;3.40;;;;;;;-145.23;100.00;58621.06;5100028;27;20286;-51
2022/05/13 00:53:02;;;;;;;2.80;2.60;;;;;;;-145.23;100.00;58621.06;5094012;28;20592;-52
2022/05/13 00:55:34;;;;;;;2.75;2.55;;;;;;;-145.23;100.00;58621.06;5090533;27;20226;-53
2022/05/13 00:58:01;;;;;;;2.75;2.55;;;;;;;-145.23;100.00;58621.06;5083796;28;20224;-51
2022/05/13 01:00:29;;;;;;;2.60;2.40;;;;;;;-145.23;100.00;58621.06;5092747;28;20997;-53
2022/05/13 01:02:56;;;;;;;2.70;2.50;;;;;;;-145.23;100.00;58621.06;5092526;27;20609;-54
2022/05/13 01:05:23;;;;;;;2.63;2.42;;;;;;;-145.23;100.00;58621.06;5099878;27;20309;-52
2022/05/13 01:07:50;;;;;;;3.35;3.05;;;;;;;-145.23;100.00;58621.06;5093580;28;20774;-53
2022/05/13 01:10:20;;;;;;;3.70;2.92;;;;;;;-145.23;100.00;58621.06;5087344;28;20687;-52
2022/05/13 01:12:50;;;;;;;4.03;2.80;;;;;;;-145.23;100.00;58621.06;5081094;28;20649;-54
2022/05/13 01:15:19;;;;;;;3.00;2.70;;;;;;;-145.23;100.00;58621.06;5078639;28;20227;-52
2022/05/13 01:20:33;;;;;;;2.35;2.15;;;;;;;-145.23;100.00;58621.06;5078074;28;20250;-53
2022/05/13 01:23:02;;;;;;;3.05;2.78;;;;;;;-145.23;100.00;58621.06;5083084;28;20287;-53
2022/05/13 01:25:33;;;;;;;2.15;1.95;;;;;;;-145.23;100.00;58621.06;5084247;28;20226;-51
2022/05/13 01:28:07;;;;;;;2.83;2.63;;;;;;;-145.23;100.00;58621.06;5074896;28;20234;-55
2022/05/13 01:30:33;;;;;;;2.85;2.65;;;;;;;-145.23;100.00;58621.06;5087621;28;20235;-52
2022/05/13 01:33:00;;;;;;;3.55;3.25;;;;;;;-145.23;100.00;58621.06;5091418;28;20219;-53
2022/05/13 01:35:26;;;;;;;5.07;2.80;;;;;;;-145.23;100.00;58621.06;5084140;28;20239;-53
2022/05/13 01:37:53;;;;;;;3.88;2.72;;;;;;;-145.23;100.00;58621.06;5080614;28;20294;-52
2022/05/13 01:40:21;;;;;;;4.95;2.63;;;;;;;-145.23;100.00;58621.06;5100121;27;20234;-54
2022/05/13 01:42:47;;;;;;;2.88;2.72;;;;;;;-145.23;100.00;58621.06;5100628;28;20286;-51
2022/05/13 01:45:14;;;;;;;3.97;2.78;;;;;;;-145.23;100.00;58621.06;5094407;28;20493;-53
2022/05/13 01:47:41;;;;;;;3.00;2.67;;;;;;;-145.23;100.00;58621.06;5085598;28;20238;-52
2022/05/13 01:50:08;;;;;;;3.17;2.90;;;;;;;-145.23;100.00;58621.06;5094155;28;20247;-54
2022/05/13 01:52:35;;;;;;;3.00;2.70;;;;;;;-145.23;100.00;58621.06;5090279;28;20888;-53
2022/05/13 01:55:01;;;;;;;3.17;2.78;;;;;;;-145.23;100.00;58621.06;5076193;28;20233;-52
2022/05/13 01:57:29;;;;;;;3.63;3.13;;;;;;;-145.23;100.00;58621.06;5092115;28;20763;-51
2022/05/13 01:59:55;;;;;;;7.85;4.32;;;;;;;-145.23;100.00;58621.06;5078060;28;20235;-55
2022/05/13 02:02:22;;;;;;;2.63;2.42;;;;;;;-145.23;100.00;58621.06;5102088;28;20237;-52
2022/05/13 02:04:47;;;;;;;3.50;3.03;;;;;;;-145.23;100.00;58621.06;5105739;28;20264;-53
2022/05/13 02:07:13;;;;;;;3.65;3.35;;;;;;;-145.23;100.00;58621.06;5104299;28;20245;-51
2022/05/13 02:09:40;;;;;;;3.30;2.97;;;;;;;-145.23;100.00;58621.06;5101490;28;20334;-52
2022/05/13 02:12:08;;;;;;;3.70;3.13;;;;;;;-145.23;100.00;58621.06;5093926;27;20234;-52
2022/05/13 02:14:36;;;;;;;3.33;3.13;;;;;;;-145.23;100.00;58621.06;5093373;28;20287;-52
2022/05/13 02:17:02;;;;;;;3.70;3.40;;;;;;;-145.23;100.00;58621.06;5104185;28;20762;-52
2022/05/13 02:19:29;;;;;;;3.92;3.63;;;;;;;-145.23;100.00;58621.06;5100993;27;20731;-51
2022/05/13 02:21:55;;;;;;;3.80;3.50;;;;;;;-145.23;100.00;58621.06;5099788;28;20230;-51
2022/05/13 02:24:21;;;;;;;4.28;3.40;;;;;;;-145.23;100.00;58621.06;5095472;28;20283;-54
2022/05/13 02:26:48;;;;;;;3.00;2.80;;;;;;;-145.23;100.00;58621.06;5094938;28;20274;-52
2022/05/13 02:29:14;;;;;;;3.47;3.28;;;;;;;-145.23;100.00;58621.06;5094613;28;20226;-51
2022/05/13 02:31:42;;;;;;;3.67;3.22;;;;;;;-145.23;100.00;58621.06;5095158;28;20234;-52
2022/05/13 02:34:08;;;;;;;4.50;3.60;;;;;;;-145.23;100.00;58621.06;5105839;27;20218;-53
2022/05/13 02:36:35;;;;;;;3.38;3.17;;;;;;;-145.23;100.00;58621.06;5103807;28;20347;-50
2022/05/13 02:39:01;;;;;;;3.80;3.05;;;;;;;-145.23;100.00;58621.06;5105519;28;20703;-51
2022/05/13 02:41:27;;;;;;;3.13;2.92;;;;;;;-145.23;100.00;58621.06;5105171;28;20302;-54
2022/05/13 02:43:55;;;;;;;3.90;3.60;;;;;;;-145.23;100.00;58621.06;5093326;28;20696;-52
2022/05/13 02:46:23;;;;;;;3.83;3.53;;;;;;;-145.23;100.00;58621.06;5080061;28;20302;-52
2022/05/13 02:48:51;;;;;;;3.78;3.47;;;;;;;-145.23;100.00;58621.06;5070988;28;20234;-51
2022/05/13 02:51:18;;;;;;;4.13;3.83;;;;;;;-145.23;100.00;58621.06;5071109;28;20238;-52
2022/05/13 02:53:45;;;;;;;4.32;4.03;;;;;;;-145.23;100.00;58621.06;5083309;28;20234;-50
2022/05/13 02:56:12;;;;;;;4.75;4.35;;;;;;;-145.23;100.00;58621.06;5082764;28;20234;-52
2022/05/13 02:58:39;;;;;;;3.60;3.30;;;;;;;-145.23;100.00;58621.06;5083910;28;20250;-52
2022/05/13 03:01:07;;;;;;;5.63;4.28;;;;;;;-145.23;100.00;58621.06;5085788;28;20227;-52
2022/05/13 03:03:34;;;;;;;4.63;4.22;;;;;;;-145.23;100.00;58621.06;5091566;28;20300;-52
2022/05/13 03:06:01;;;;;;;4.40;4.00;;;;;;;-145.23;100.00;58621.06;5082853;28;20231;-51
2022/05/13 03:08:28;;;;;;;4.55;4.07;;;;;;;-145.23;100.00;58621.06;5072084;28;20222;-51
2022/05/13 03:10:54;;;;;;;5.28;4.18;;;;;;;-145.23;100.00;58621.06;5095001;28;20246;-52
2022/05/13 03:13:21;;;;;;;4.18;3.88;;;;;;;-145.23;100.00;58621.06;5095392;28;20711;-51
2022/05/13 03:15:48;;;;;;;4.80;4.47;;;;;;;-145.23;100.00;58621.06;5103114;28;20562;-51
2022/05/13 03:18:15;;;;;;;7.78;5.00;;;;;;;-145.23;100.00;58621.06;5093599;28;20257;-51
2022/05/13 03:20:42;;;;;;;4.32;4.03;;;;;;;-145.23;100.00;58621.06;5103256;28;20233;-52
2022/05/13 03:23:10;;;;;;;4.95;4.55;;;;;;;-145.23;100.00;58621.06;5103678;28;20700;-52
2022/05/13 03:25:36;;;;;;;4.10;3.80;;;;;;;-145.23;100.00;58621.06;5095251;28;20551;-51
2022/05/13 03:28:02;;;;;;;4.88;4.47;;;;;;;-145.23;100.00;58621.06;5103454;28;20230;-51
2022/05/13 03:30:29;;;;;;;4.95;4.63;;;;;;;-145.23;100.00;58621.06;5099320;28;20242;-51
2022/05/13 03:32:56;;;;;;;4.00;3.70;;;;;;;-145.23;100.00;58621.06;5102956;28;20268;-51
2022/05/13 03:35:23;;;;;;;4.55;3.83;;;;;;;-145.23;100.00;58621.06;5099197;28;20226;-53
2022/05/13 03:37:50;;;;;;;5.30;4.55;;;;;;;-145.23;100.00;58621.06;5100512;28;20230;-52
2022/05/13 03:40:18;;;;;;;4.95;4.55;;;;;;;-145.23;100.00;58621.06;5098681;28;20241;-52
2022/05/13 03:42:45;;;;;;;4.90;4.40;;;;;;;-145.23;100.00;58621.06;5099994;28;20242;-52
2022/05/13 03:45:13;;;;;;;4.63;4.32;;;;;;;-145.23;100.00;58621.06;5097292;28;20218;-51
2022/05/13 03:47:40;;;;;;;4.72;4.38;;;;;;;-145.23;100.00;58621.06;5096379;28;20294;-52
2022/05/13 03:50:08;;;;;;;6.57;5.50;;;;;;;-145.23;100.00;58621.06;5092903;28;20776;-53
2022/05/13 03:52:35;;;;;;;5.00;4.35;;;;;;;-145.23;100.00;58621.06;5098726;28;20607;-53
2022/05/13 03:55:01;;;;;;;7.63;4.97;;;;;;;-145.23;100.00;58621.06;5097776;28;20845;-52
2022/05/13 03:57:29;;;;;;;7.20;6.50;;;;;;;-145.23;100.00;58621.06;5100527;28;20234;-53
2022/05/13 03:59:57;;;;;;;8.10;4.75;;;;;;;-145.23;100.00;58621.06;5099724;28;20230;-51
2022/05/13 04:02:24;;;;;;;6.80;4.82;;;;;;;-145.23;100.00;58621.06;5092963;28;20776;-51
2022/05/13 04:10:18;;;;;;;8.45;4.75;;;;;;;-145.23;100.00;58621.06;5091769;27;20707;-51
2022/05/13 04:18:10;;;;;;;4.97;4.55;;;;;;;-145.23;100.00;58621.06;5094117;28;20241;-53
2022/05/13 04:20:36;;;;;;;5.43;4.97;;;;;;;-145.23;100.00;58621.06;5084738;28;20238;-53
2022/05/13 04:23:03;;;;;;;5.57;5.07;;;;;;;-145.23;100.00;58621.06;5077668;28;20262;-52
2022/05/13 04:25:30;;;;;;;6.45;5.13;;;;;;;-145.23;100.00;58621.06;5082349;28;20242;-52
2022/05/13 04:27:58;;;;;;;7.82;5.05;;;;;;;-145.23;100.00;58621.06;5079173;28;20728;-56
2022/05/13 04:30:24;;;;;;;5.85;4.82;;;;;;;-145.23;100.00;58621.06;5080468;28;20384;-52
2022/05/13 04:32:50;;;;;;;4.72;4.43;;;;;;;-145.23;100.00;58621.06;5088901;28;20231;-51
2022/05/13 04:35:17;;;;;;;5.03;4.60;;;;;;;-145.23;100.00;58621.06;5081117;28;20238;-53
2022/05/13 04:37:44;;;;;;;6.85;6.20;;;;;;;-145.23;100.00;58621.06;5078848;28;20262;-51
2022/05/13 04:40:12;;;;;;;5.05;4.55;;;;;;;-145.23;100.00;58621.06;5082510;28;20230;-52
2022/05/13 04:42:49;;;;;;;6.25;5.75;;;;;;;-145.23;100.00;58621.06;5085087;28;20724;-53
2022/05/13 04:45:23;;;;;;;8.15;5.63;;;;;;;-145.23;100.00;58621.06;5087780;28;20222;-50
2022/05/13 04:50:35;;;;;;;6.32;5.25;;;;;;;-145.23;100.00;58621.06;5080096;28;20249;-52
2022/05/13 04:53:02;;;;;;;5.22;4.80;;;;;;;-145.23;100.00;58621.06;5080048;28;20716;-53
2022/05/13 04:55:28;;;;;;;5.38;4.88;;;;;;;-145.23;100.00;58621.06;5080424;28;20298;-51
2022/05/13 04:57:54;;;;;;;6.55;4.43;;;;;;;-145.23;100.00;58621.06;5072809;28;20247;-51
2022/05/13 05:00:22;;;;;;;5.93;5.35;;;;;;;-145.23;100.00;58621.06;5087738;28;20218;-51
2022/05/13 05:02:49;;;;;;;5.50;5.10;;;;;;;-145.23;100.00;58621.06;5085118;28;20641;-52
2022/05/13 05:05:16;;;;;;;7.57;4.93;;;;;;;-145.23;100.00;58621.06;5092263;27;20233;-52
2022/05/13 05:07:42;;;;;;;5.30;4.80;;;;;;;-145.23;100.00;58621.06;5098268;28;20751;-51
2022/05/13 05:10:10;;;;;;;7.25;5.10;;;;;;;-145.23;100.00;58621.06;5080690;28;20756;-52
2022/05/13 05:12:37;;;;;;;5.70;5.13;;;;;;;-145.23;100.00;58621.06;5074166;28;20728;-52
2022/05/13 05:15:03;;;;;;;6.70;4.95;;;;;;;-145.23;100.00;58621.06;5077165;28;20295;-52
2022/05/13 05:17:31;;;;;;;7.82;5.35;;;;;;;-145.23;100.00;58621.06;5082245;28;20286;-51
2022/05/13 05:19:58;;;;;;;8.43;4.55;;;;;;;-145.23;100.00;58621.06;5087650;28;20225;-51
2022/05/13 05:22:24;;;;;;;7.75;4.90;;;;;;;-145.23;100.00;58621.06;5091649;27;20756;-52
2022/05/13 05:24:50;;;;;;;8.57;6.88;;;;;;;-145.23;100.00;58621.06;5093189;28;20226;-52
2022/05/13 05:27:17;;;;;;;9.68;5.85;;;;;;;-145.23;100.00;58621.06;5073395;28;20288;-51
2022/05/13 05:29:45;;;;;;;6.93;5.70;;;;;;;-145.23;100.00;58621.06;5075608;28;20605;-52
2022/05/13 05:32:11;;;;;;;6.68;5.32;;;;;;;-145.23;100.00;58621.06;5073844;28;20261;-52
2022/05/13 05:34:39;;;;;;;10.00;5.40;;;;;;;-145.23;100.00;58621.06;5097842;28;20306;-52
2022/05/13 05:37:06;;;;;;;8.18;5.72;;;;;;;-145.23;100.00;58621.06;5103495;28;20631;-52
2022/05/13 05:39:32;;;;;;;6.00;5.20;;;;;;;-145.23;100.00;58621.06;5074539;28;20318;-51
2022/05/13 05:41:58;;;;;;;5.80;5.22;;;;;;;-145.23;100.00;58621.06;5079175;28;20238;-51
2022/05/13 05:44:25;;;;;;;6.55;5.10;;;;;;;-145.23;100.00;58621.06;5076524;28;20312;-52
2022/05/13 05:46:52;;;;;;;5.82;4.88;;;;;;;-145.23;100.00;58621.06;5082534;28;20238;-51
2022/05/13 05:49:19;;;;;;;6.50;5.47;;;;;;;-145.23;100.00;58621.06;5081619;28;20266;-52
2022/05/13 05:51:46;;;;;;;9.52;5.63;;;;;;;-145.23;100.00;58621.06;5100666;28;20242;-52
2022/05/13 05:57:15;;;;;;;6.60;5.03;;;;;;;-145.23;100.00;58621.06;5078809;28;20237;-53
2022/05/13 05:59:41;;;;;;;6.63;4.20;;;;;;;-145.23;100.00;58621.06;5079007;28;20226;-52
2022/05/13 06:02:08;;;;;;;4.25;3.85;;;;;;;-145.23;100.00;58621.06;5089182;28;20315;-52
2022/05/13 06:04:35;;;;;;;8.35;4.35;;;;;;;-145.23;100.00;58621.06;5090231;28;20712;-53
2022/05/13 06:07:04;;;;;;;6.13;4.60;;;;;;;-145.23;100.00;58621.06;5073185;28;20647;-52
2022/05/13 06:09:30;;;;;;;4.43;4.03;;;;;;;-145.23;100.00;58621.06;5081771;28;20286;-52
2022/05/13 06:11:57;;;;;;;9.32;5.20;;;;;;;-145.23;100.00;58621.06;5078025;28;20307;-53
2022/05/13 06:14:23;;;;;;;5.18;4.60;;;;;;;-145.23;100.00;58621.06;5077332;28;20641;-52
2022/05/13 06:16:51;;;;;;;7.97;5.43;;;;;;;-145.23;100.00;58621.06;5077947;28;20233;-51
2022/05/13 06:19:17;;;;;;;4.40;4.10;;;;;;;-145.23;100.00;58621.06;5075485;28;20241;-52
2022/05/13 06:21:44;;;;;;;6.13;4.65;;;;;;;-145.23;100.00;58621.06;5082668;28;20775;-52
2022/05/13 06:24:11;;;;;;;8.85;4.82;;;;;;;-145.23;100.00;58621.06;5078865;28;20230;-52
2022/05/13 06:26:40;;;;;;;5.50;4.70;;;;;;;-145.23;100.00;58621.06;5076129;28;20234;-51
2022/05/13 06:29:07;;;;;;;5.38;4.88;;;;;;;-145.23;100.00;58621.06;5091761;28;20233;-53
2022/05/13 06:31:34;;;;;;;6.20;4.45;;;;;;;-145.23;100.00;58621.06;5085861;27;20269;-51
2022/05/13 06:34:00;;;;;;;5.97;4.60;;;;;;;-145.23;100.00;58621.06;5082683;28;20716;-56
2022/05/13 06:36:27;;;;;;;6.38;5.25;;;;;;;-145.23;100.00;58621.06;5085763;28;20226;-53
2022/05/13 06:38:53;;;;;;;7.50;6.05;;;;;;;-145.23;100.00;58621.06;5079096;28;20231;-51
2022/05/13 06:41:24;;;;;;;8.05;5.97;;;;;;;-145.23;100.00;58621.06;5082124;28;20704;-51
2022/05/13 06:43:51;;;;;;;5.25;4.85;;;;;;;-145.23;100.00;58621.06;5082879;28;20314;-53
2022/05/13 06:46:17;;;;;;;8.10;5.25;;;;;;;-145.23;100.00;58621.06;5075796;28;20731;-52
2022/05/13 06:48:44;;;;;;;6.50;5.68;;;;;;;-145.23;100.00;58621.06;5071395;28;20223;-52
2022/05/13 06:51:11;;;;;;;6.38;5.45;;;;;;;-145.23;100.00;58621.06;5076842;28;20839;-52
2022/05/13 06:53:37;;;;;;;8.07;5.78;;;;;;;-145.23;100.00;58621.06;5075351;28;20246;-52
2022/05/13 06:56:04;;;;;;;8.65;5.35;;;;;;;-145.23;100.00;58621.06;5090932;28;20222;-51
2022/05/13 06:58:34;;;;;;;8.25;5.47;;;;;;;-145.23;100.00;58621.06;5089295;28;20238;-51
2022/05/13 07:01:01;;;;;;;6.68;5.70;;;;;;;-145.23;100.00;58621.06;5084271;27;20238;-52
2022/05/13 07:03:27;;;;;;;8.10;5.70;;;;;;;-145.23;100.00;58621.06;5079465;28;20229;-52
2022/05/13 07:05:54;;;;;;;11.85;7.18;;;;;;;-145.23;100.00;58621.06;5069458;28;20840;-52
2022/05/13 07:08:20;;;;;;;7.13;5.57;;;;;;;-145.23;100.00;58621.06;5082368;28;20234;-53
2022/05/13 07:10:47;;;;;;;8.50;5.95;;;;;;;-145.23;100.00;58621.06;5083287;28;20272;-53
2022/05/13 07:13:15;;;;;;;5.60;5.10;;;;;;;-145.23;100.00;58621.06;5089725;28;20838;-51
2022/05/13 07:15:43;;;;;;;6.95;5.90;;;;;;;-145.23;100.00;58621.06;5077754;28;21247;-53
2022/05/13 07:18:10;;;;;;;7.78;5.75;;;;;;;-145.23;100.00;58621.06;5083984;28;20233;-52
2022/05/13 07:20:36;;;;;;;6.68;5.82;;;;;;;-145.23;100.00;58621.06;5082816;28;20238;-52
2022/05/13 07:23:04;;;;;;;7.47;5.65;;;;;;;-145.23;100.00;58621.06;5077971;28;20390;-52
2022/05/13 07:25:31;;;;;;;7.57;5.43;;;;;;;-145.23;100.00;58621.06;5084799;28;20226;-53
2022/05/13 07:27:57;;;;;;;7.03;6.43;;;;;;;-145.23;100.00;58621.06;5081993;28;20234;-51
2022/05/13 07:30:24;;;;;;;8.60;6.47;;;;;;;-145.23;100.00;58621.06;5079985;28;20283;-50
2022/05/13 07:32:52;;;;;;;6.55;6.00;;;;;;;-145.23;100.00;58621.06;5087840;28;20234;-53
2022/05/13 07:35:19;;;;;;;10.88;6.32;;;;;;;-145.23;100.00;58621.06;5105486;28;20282;-51
2022/05/13 07:37:45;;;;;;;12.40;7.63;;;;;;;-145.23;100.00;58621.06;5101286;28;20274;-53
2022/05/13 07:42:57;;;;;;;7.07;6.38;;;;;;;-145.23;100.00;58621.06;5093004;28;20232;-52
2022/05/13 07:45:24;;;;;;;10.38;7.63;;;;;;;-145.23;100.00;58621.06;5092146;28;20226;-51
2022/05/13 07:47:53;;;;;;;8.80;7.18;;;;;;;-145.23;100.00;58621.06;5082502;28;20226;-51
2022/05/13 07:50:20;;;;;;;8.10;6.05;;;;;;;-145.23;100.00;58621.06;5078518;28;20654;-53
2022/05/13 07:52:46;;;;;;;10.93;7.00;;;;;;;-145.23;100.00;58621.06;5090967;28;20607;-51
2022/05/13 07:55:15;;;;;;;8.73;6.57;;;;;;;-145.23;100.00;58621.06;5085191;28;20219;-51
2022/05/13 07:57:43;;;;;;;7.45;6.53;;;;;;;-145.23;100.00;58621.06;5092106;28;20825;-51
2022/05/13 08:00:25;;;;;;;9.48;6.85;;;;;;;-145.23;100.00;58621.06;5094243;27;20254;-53
2022/05/13 08:02:53;;;;;;;6.70;5.97;;;;;;;-145.23;100.00;58621.06;5081295;28;20283;-52
2022/05/13 08:05:21;;;;;;;6.97;6.30;;;;;;;-145.23;100.00;58621.06;5087517;28;20291;-51
2022/05/13 08:07:47;;;;;;;12.10;7.45;;;;;;;-145.23;100.00;58621.06;5083027;28;20321;-52
2022/05/13 08:10:14;;;;;;;8.85;7.18;;;;;;;-145.23;100.00;58621.06;5078003;28;20218;-52
2022/05/13 08:12:42;;;;;;;9.00;7.40;;;;;;;-145.23;100.00;58621.06;5078595;28;20245;-51
2022/05/13 08:15:09;;;;;;;9.80;6.22;;;;;;;-145.23;100.00;58621.06;5079843;28;20240;-51
2022/05/13 08:17:36;;;;;;;7.40;6.03;;;;;;;-145.23;100.00;58621.06;5086595;28;20230;-53
2022/05/13 08:20:04;;;;;;;8.45;6.32;;;;;;;-145.23;100.00;58621.06;5076890;28;20238;-51
2022/05/13 08:22:31;;;;;;;6.97;6.35;;;;;;;-145.23;100.00;58621.06;5075768;28;20246;-52
2022/05/13 08:24:59;;;;;;;9.75;6.85;;;;;;;-145.23;100.00;58621.06;5089906;28;20226;-52
2022/05/13 08:27:25;;;;;;;9.80;8.15;;;;;;;-145.23;100.00;58621.06;5080728;28;20227;-53
2022/05/13 08:29:52;;;;;;;8.43;7.63;;;;;;;-145.23;100.00;58621.06;5088138;28;20497;-51
2022/05/13 08:32:18;;;;;;;8.63;7.55;;;;;;;-145.23;100.00;58621.06;5088559;28;20230;-51
2022/05/13 08:34:44;;;;;;;6.88;6.18;;;;;;;-145.23;100.00;58621.06;5088617;28;20652;-52
2022/05/13 08:37:12;;;;;;;8.05;7.35;;;;;;;-145.23;100.00;58621.06;5080451;28;20634;-54
2022/05/13 08:39:38;;;;;;;11.55;7.50;;;;;;;-145.23;100.00;58621.06;5071709;28;20285;-53
2022/05/13 08:42:12;;;;;;;10.82;7.95;;;;;;;-145.23;100.00;58621.06;5080426;28;20235;-53
2022/05/13 08:44:39;;;;;;;7.82;7.22;;;;;;;-145.23;100.00;58621.06;5079274;28;20724;-53
2022/05/13 08:47:10;;;;;;;9.15;8.15;;;;;;;-145.23;100.00;58621.06;5072121;28;20652;-53
2022/05/13 08:49:41;;;;;;;9.80;7.85;;;;;;;-145.23;100.00;58621.06;5080966;28;20773;-51
2022/05/13 08:55:00;;;;;;;11.90;9.23;;;;;;;-145.23;100.00;58621.06;5098891;27;20427;-53
2022/05/13 08:57:29;;;;;;;8.30;7.40;;;;;;;-145.23;100.00;58621.06;5095314;28;21009;-51
2022/05/13 08:59:58;;;;;;;10.27;7.68;;;;;;;-145.23;100.00;58621.06;5100332;27;20222;-52
2022/05/13 09:02:33;;;;;;;11.55;7.63;;;;;;;-145.23;100.00;58621.06;5090271;28;20234;-52
2022/05/13 09:05:02;;;;;;;8.15;7.35;;;;;;;-145.23;100.00;58621.06;5088123;27;20672;-52
2022/05/13 09:07:30;;;;;;;8.02;6.68;;;;;;;-145.23;100.00;58621.06;5096171;27;20275;-52
2022/05/13 09:10:00;;;;;;;7.00;6.30;;;;;;;-145.23;100.00;58621.06;5079369;28;20316;-51
2022/05/13 09:12:32;;;;;;;7.10;6.40;;;;;;;-145.23;100.00;58621.06;5079434;28;20812;-51
2022/05/13 09:15:03;;;;;;;6.38;5.78;;;;;;;-145.23;100.00;58621.06;5103137;28;20222;-50
2022/05/13 09:17:35;;;;;;;8.70;5.35;;;;;;;-145.23;100.00;58621.06;5105652;28;20245;-52
2022/05/13 09:20:06;;;;;;;6.72;4.95;;;;;;;-145.23;100.00;58621.06;5102568;27;20249;-51
2022/05/13 09:22:39;;;;;;;5.88;4.95;;;;;;;-145.23;100.00;58621.06;5098462;28;20238;-51
2022/05/13 09:25:07;;;;;;;6.45;4.88;;;;;;;-145.23;100.00;58621.06;5098729;28;20307;-54
2022/05/13 09:27:44;;;;;;;5.05;4.55;;;;;;;-145.23;100.00;58621.06;5103174;28;20533;-53
2022/05/13 09:30:12;;;;;;;4.05;3.50;;;;;;;-145.23;100.00;58621.06;5105629;27;20699;-53
2022/05/13 09:32:38;;;;;;;5.78;3.80;;;;;;;-145.23;100.00;58621.06;5102143;27;20242;-52
2022/05/13 09:35:10;;;;;;;5.03;3.20;;;;;;;-145.23;100.00;58621.06;5076246;28;20229;-51
2022/05/13 09:37:41;;;;;;;7.22;3.28;;;;;;;-145.23;100.00;58621.06;5082141;28;20329;-53
2022/05/13 09:40:11;;;;;;;4.80;3.00;;;;;;;-145.23;100.00;58621.06;5079126;28;20231;-54
2022/05/13 09:42:39;;;;;;;3.42;3.13;;;;;;;-145.23;100.00;58621.06;5080676;28;20713;-53
2022/05/13 09:45:19;;;;;;;8.73;4.15;;;;;;;-145.23;100.00;58621.06;5091123;28;20689;-51
2022/05/13 09:47:46;;;;;;;7.07;3.40;;;;;;;-145.23;100.00;58621.06;5090313;28;20230;-51
2022/05/13 09:50:20;;;;;;;5.97;3.88;;;;;;;-145.23;100.00;58621.06;5075392;28;20731;-51
2022/05/13 09:52:48;;;;;;;3.75;3.17;;;;;;;-145.23;100.00;58621.06;5089489;28;21085;-53
2022/05/13 09:55:17;;;;;;;5.88;3.63;;;;;;;-145.23;100.00;58621.06;5095978;27;20991;-52
2022/05/13 09:57:43;;;;;;;8.27;3.55;;;;;;;-145.23;100.00;58621.06;5082595;28;20234;-52
2022/05/13 10:00:15;;;;;;;6.93;3.88;;;;;;;-145.23;100.00;58621.06;5079399;28;20996;-51
2022/05/13 10:02:43;;;;;;;6.88;3.65;;;;;;;-145.23;100.00;58621.06;5085186;28;20251;-52
2022/05/13 10:05:16;;;;;;;8.40;3.97;;;;;;;-145.23;100.00;58621.06;5103067;27;20229;-52
2022/05/13 10:07:46;;;;;;;6.93;4.25;;;;;;;-145.23;100.00;58621.06;5101838;28;20435;-52
2022/05/13 10:15:53;;;;;;;5.10;4.00;;;;;;;-145.23;100.00;58621.06;5066366;28;20297;-51
2022/05/13 10:18:23;;;;;;;6.47;3.63;;;;;;;-145.23;100.00;58621.06;5105567;28;20401;-54
2022/05/13 10:20:52;;;;;;;12.15;4.05;;;;;;;-145.23;100.00;58621.06;5094890;28;20319;-54
2022/05/13 10:23:23;;;;;;;9.25;4.20;;;;;;;-145.23;100.00;58621.06;5096295;28;20509;-51
2022/05/13 10:25:56;;;;;;;6.65;4.00;;;;;;;-145.23;100.00;58621.06;5102580;27;20229;-54
2022/05/13 10:28:29;;;;;;;6.57;3.95;;;;;;;-145.23;100.00;58621.06;5104367;27;20236;-52
2022/05/13 10:31:02;;;;;;;5.68;3.08;;;;;;;-145.23;100.00;58621.06;5083922;28;20290;-52
2022/05/13 10:33:33;;;;;;;4.03;3.42;;;;;;;-145.23;100.00;58621.06;5089975;28;20233;-51
2022/05/13 10:36:03;;;;;;;3.40;3.10;;;;;;;-145.23;100.00;58621.06;5085895;28;20223;-52
2022/05/13 10:38:31;;;;;;;4.38;3.15;;;;;;;-145.23;100.00;58621.06;5078943;28;20249;-52
2022/05/13 10:41:08;;;;;;;4.35;3.00;;;;;;;-145.23;100.00;58621.06;5077765;28;20318;-51
2022/05/13 10:43:39;;;;;;;5.43;3.08;;;;;;;-145.23;100.00;58621.06;5078080;28;20241;-52
2022/05/13 10:46:14;;;;;;;8.00;4.13;;;;;;;-145.23;100.00;58621.06;5080899;28;20441;-52
2022/05/13 10:48:40;;;;;;;5.00;3.15;;;;;;;-145.23;100.00;58621.06;5084665;28;20749;-53
2022/05/13 10:51:12;;;;;;;4.45;3.30;;;;;;;-145.23;100.00;58621.06;5083653;28;20323;-53
2022/05/13 10:54:02;;;;;;;6.05;3.00;;;;;;;-145.23;100.00;58621.06;5077359;28;20256;-51
2022/05/13 10:56:35;;;;;;;5.15;2.63;;;;;;;-145.23;100.00;58621.06;5073342;28;20257;-52
2022/05/13 10:59:07;;;;;;;3.15;2.35;;;;;;;-145.23;100.00;58621.06;5072135;28;20223;-53
2022/05/13 11:01:40;;;;;;;8.93;2.78;;;;;;;-145.23;100.00;58621.06;5082873;28;20226;-52
2022/05/13 11:04:12;;;;;;;4.82;1.98;;;;;;;-145.23;100.00;58621.06;5076921;28;20218;-52
2022/05/13 11:06:50;;;;;;;2.78;1.63;;;;;;;-145.23;100.00;58621.06;5080861;28;20264;-53
2022/05/13 11:09:26;;;;;;;5.40;2.42;;;;;;;-145.23;100.00;58621.06;5068319;28;20235;-55
2022/05/13 11:11:58;;;;;;;5.28;2.35;;;;;;;-145.23;100.00;58621.06;5080110;28;20320;-52
2022/05/13 11:14:35;;;;;;;4.72;2.00;;;;;;;-145.23;100.00;58621.06;5082531;28;20280;-52
2022/05/13 11:17:12;;;;;;;10.82;2.30;;;;;;;-145.23;100.00;58621.06;5076215;28;20227;-53
2022/05/13 11:19:43;;;;;;;2.97;1.55;;;;;;;-145.23;100.00;58621.06;5095102;28;20261;-52
2022/05/13 11:22:14;;;;;;;4.25;1.85;;;;;;;-145.23;100.00;58621.06;5087740;28;20243;-52
2022/05/13 11:27:49;;;;;;;5.70;2.15;;;;;;;-145.23;100.00;58621.06;5077585;28;20596;-52
2022/05/13 11:30:18;;;;;;;5.75;1.75;;;;;;;-145.23;100.00;58621.06;5088987;28;20564;-55
2022/05/13 11:32:49;;;;;;;6.70;2.05;;;;;;;-145.23;100.00;58621.06;5088672;28;20230;-54
2022/05/13 11:35:29;;;;;;;3.72;2.53;;;;;;;-145.23;100.00;58621.06;5081254;28;20256;-52
2022/05/13 11:37:59;;;;;;;6.20;2.55;;;;;;;-145.23;100.00;58621.06;5086267;28;20226;-52
2022/05/13 11:40:29;;;;;;;3.15;2.75;;;;;;;-145.23;100.00;58621.06;5091967;28;20312;-52
2022/05/13 11:43:20;;;;;;;4.53;2.60;;;;;;;-145.23;100.00;58621.06;5088850;28;20284;-51
2022/05/13 11:45:57;;;;;;;4.95;2.95;;;;;;;-145.23;100.00;58621.06;5076387;28;20334;-53
2022/05/13 11:48:26;;;;;;;3.97;2.47;;;;;;;-145.23;100.00;58621.06;5084802;28;20238;-52